Time;durP1;ratioP1;P1;durP2;ratioP2;P2;SDS_P1;SDS_P2;PMS_P1;PMS_P2;Temp;Humidity;BMP_temperature;BMP_pressure;BME280_temperature;BME280_humidity;BME280_pressure;Samples;Min_cycle;Max_cycle;Signal;HPM_P1;HPM_P2
2023/11/15 00:01:42;;;;;;;9.80;3.37;;;10.60;99.90;;;;;;4973962;28;20221;-80
2023/11/15 00:04:09;;;;;;;11.03;3.70;;;10.50;99.90;;;;;;4973756;28;20200;-80
2023/11/15 00:06:36;;;;;;;13.00;3.07;;;10.60;99.90;;;;;;4973767;28;20205;-79
2023/11/15 00:09:06;;;;;;;9.20;3.40;;;10.60;99.90;;;;;;4973680;28;20208;-81
2023/11/15 00:11:33;;;;;;;13.53;3.90;;;10.60;99.90;;;;;;4956801;28;20263;-81
2023/11/15 00:14:01;;;;;;;12.43;3.60;;;10.50;99.90;;;;;;4956869;28;20193;-81
2023/11/15 00:16:29;;;;;;;10.07;3.40;;;10.60;99.90;;;;;;4974130;28;20202;-81
2023/11/15 00:18:56;;;;;;;11.33;3.80;;;10.50;99.90;;;;;;4973556;28;20642;-80
2023/11/15 00:21:23;;;;;;;10.90;3.50;;;10.50;99.90;;;;;;4955960;28;20248;-80
2023/11/15 00:23:50;;;;;;;11.37;3.23;;;10.60;99.90;;;;;;4956144;28;20241;-81
2023/11/15 00:26:18;;;;;;;8.80;3.10;;;10.50;99.90;;;;;;4956270;28;20227;-80
2023/11/15 00:28:45;;;;;;;8.20;3.00;;;10.50;99.90;;;;;;4973782;28;20222;-81
2023/11/15 00:31:12;;;;;;;10.97;3.40;;;10.40;99.90;;;;;;4973776;28;20567;-80
2023/11/15 00:33:40;;;;;;;9.67;3.20;;;10.40;99.90;;;;;;4975239;28;20596;-81
2023/11/15 00:36:11;;;;;;;10.90;3.40;;;10.40;99.90;;;;;;4960791;28;20200;-81
2023/11/15 00:38:39;;;;;;;13.47;3.23;;;10.40;99.90;;;;;;4960184;28;20658;-80
2023/11/15 00:41:08;;;;;;;12.67;3.40;;;10.40;99.90;;;;;;4977468;28;20295;-80
2023/11/15 00:43:35;;;;;;;8.07;3.20;;;10.30;99.90;;;;;;4977249;28;20293;-80
2023/11/15 00:46:02;;;;;;;11.10;3.33;;;10.30;99.90;;;;;;4977733;28;20190;-80
2023/11/15 00:48:29;;;;;;;9.93;3.27;;;10.30;99.90;;;;;;4959842;28;20197;-80
2023/11/15 00:50:56;;;;;;;11.70;3.10;;;10.30;99.90;;;;;;4960111;28;20276;-80
2023/11/15 00:53:24;;;;;;;10.50;3.43;;;10.30;99.90;;;;;;4977451;28;20205;-80
2023/11/15 00:55:51;;;;;;;9.93;3.03;;;10.20;99.90;;;;;;4976913;28;20567;-80
2023/11/15 00:58:18;;;;;;;9.47;2.87;;;10.20;99.90;;;;;;4959915;28;20200;-80
2023/11/15 01:00:47;;;;;;;7.33;3.40;;;10.20;99.90;;;;;;4977207;28;20220;-80
2023/11/15 01:03:15;;;;;;;6.90;2.50;;;10.20;99.90;;;;;;4976889;28;20240;-80
2023/11/15 01:05:42;;;;;;;11.77;3.43;;;10.20;99.90;;;;;;4976908;28;20198;-80
2023/11/15 01:08:10;;;;;;;9.03;3.23;;;10.20;99.90;;;;;;4943757;28;20284;-80
2023/11/15 01:10:37;;;;;;;8.43;2.87;;;10.10;99.90;;;;;;4959394;28;20230;-80
2023/11/15 01:13:05;;;;;;;9.37;3.10;;;10.20;99.90;;;;;;4976764;28;20208;-80
2023/11/15 01:15:32;;;;;;;8.57;3.33;;;10.10;99.90;;;;;;4959888;28;20229;-81
2023/11/15 01:18:02;;;;;;;11.87;3.50;;;10.10;99.90;;;;;;4959453;28;20721;-81
2023/11/15 01:20:29;;;;;;;10.00;2.90;;;10.10;99.90;;;;;;4976608;28;20252;-80
2023/11/15 01:22:56;;;;;;;8.90;3.10;;;10.00;99.90;;;;;;4959429;28;20785;-80
2023/11/15 01:25:30;;;;;;;8.07;2.70;;;10.00;99.90;;;;;;4959250;28;20237;-81
2023/11/15 01:27:58;;;;;;;9.37;3.00;;;10.00;99.90;;;;;;4976840;28;20200;-81
2023/11/15 01:30:28;;;;;;;9.73;3.03;;;10.00;99.90;;;;;;4976655;28;20301;-81
2023/11/15 01:32:55;;;;;;;9.10;2.73;;;10.00;99.90;;;;;;4959122;28;20358;-81
2023/11/15 01:35:23;;;;;;;6.80;2.50;;;10.00;99.90;;;;;;4959238;28;20196;-81
2023/11/15 01:37:51;;;;;;;9.57;3.30;;;10.00;99.90;;;;;;4976199;28;20658;-80
2023/11/15 01:40:22;;;;;;;8.57;3.10;;;10.00;99.90;;;;;;4976114;28;20233;-81
2023/11/15 01:42:50;;;;;;;8.27;2.70;;;10.00;99.90;;;;;;4959406;28;20193;-81
2023/11/15 01:45:18;;;;;;;9.37;3.10;;;10.00;99.90;;;;;;4942069;28;20300;-81
2023/11/15 01:47:45;;;;;;;11.30;2.70;;;10.00;99.90;;;;;;4958817;28;20580;-81
2023/11/15 01:50:13;;;;;;;7.13;3.10;;;10.10;99.90;;;;;;4976357;28;20205;-80
2023/11/15 01:52:46;;;;;;;10.17;2.77;;;10.10;99.90;;;;;;4959252;28;20210;-80
2023/11/15 01:55:16;;;;;;;8.37;2.70;;;10.10;99.90;;;;;;4958722;28;20209;-81
2023/11/15 01:57:45;;;;;;;8.63;2.97;;;10.20;99.90;;;;;;4976174;28;20225;-81
2023/11/15 02:00:14;;;;;;;8.10;2.67;;;10.10;99.90;;;;;;4975784;28;20232;-81
2023/11/15 02:02:42;;;;;;;10.30;2.80;;;10.20;99.90;;;;;;4958656;28;20250;-81
2023/11/15 02:05:10;;;;;;;9.33;3.10;;;10.20;99.90;;;;;;4975819;28;20658;-81
2023/11/15 02:07:38;;;;;;;9.70;3.03;;;10.20;99.90;;;;;;4958697;28;20240;-80
2023/11/15 02:10:07;;;;;;;9.30;2.77;;;10.20;99.90;;;;;;4975870;28;20203;-81
2023/11/15 02:12:35;;;;;;;7.97;2.90;;;10.20;99.90;;;;;;4942712;28;20756;-81
2023/11/15 02:15:04;;;;;;;11.57;3.13;;;10.20;99.90;;;;;;4958527;28;20650;-81
2023/11/15 02:17:32;;;;;;;9.03;3.10;;;10.20;99.90;;;;;;4958449;28;20679;-81
2023/11/15 02:20:00;;;;;;;9.53;3.17;;;10.20;99.90;;;;;;4958504;28;20646;-80
2023/11/15 02:22:27;;;;;;;7.17;3.10;;;10.20;99.90;;;;;;4975702;28;20244;-81
2023/11/15 02:24:54;;;;;;;6.80;2.50;;;10.20;99.90;;;;;;4975649;28;20197;-80
2023/11/15 02:27:22;;;;;;;8.43;3.17;;;10.20;99.90;;;;;;4975425;28;20198;-81
2023/11/15 02:29:49;;;;;;;5.37;2.80;;;10.20;99.90;;;;;;4958362;28;20236;-80
2023/11/15 02:32:16;;;;;;;11.33;2.97;;;10.20;99.90;;;;;;4975358;28;20276;-80
2023/11/15 02:34:43;;;;;;;8.67;2.83;;;10.30;99.90;;;;;;4957890;28;20293;-81
2023/11/15 02:37:10;;;;;;;10.60;2.80;;;10.20;99.90;;;;;;4975502;28;20197;-81
2023/11/15 02:39:37;;;;;;;10.00;2.87;;;10.20;99.90;;;;;;4975243;28;20187;-80
2023/11/15 02:42:04;;;;;;;8.03;2.73;;;10.20;99.90;;;;;;4975289;28;20641;-81
2023/11/15 02:44:34;;;;;;;7.10;2.73;;;10.20;99.90;;;;;;4958009;28;20198;-81
2023/11/15 02:47:02;;;;;;;7.67;2.50;;;10.20;99.90;;;;;;4975392;28;20243;-80
2023/11/15 02:49:30;;;;;;;8.23;2.50;;;10.20;99.90;;;;;;4957787;28;20227;-80
2023/11/15 02:51:57;;;;;;;8.43;2.93;;;10.20;99.90;;;;;;4974974;28;20209;-81
2023/11/15 02:54:24;;;;;;;8.03;2.73;;;10.20;99.90;;;;;;4957738;28;20685;-80
2023/11/15 02:56:51;;;;;;;10.73;2.97;;;10.20;99.90;;;;;;4941533;28;20728;-81
2023/11/15 02:59:20;;;;;;;8.07;2.77;;;10.10;99.90;;;;;;4975182;28;20284;-80
2023/11/15 03:01:48;;;;;;;8.20;2.90;;;10.20;99.90;;;;;;4975040;28;20228;-81
2023/11/15 03:04:15;;;;;;;5.83;2.33;;;10.10;99.90;;;;;;4957578;28;20192;-81
2023/11/15 03:06:42;;;;;;;10.57;2.83;;;10.10;99.90;;;;;;4941590;28;20570;-81
2023/11/15 03:09:10;;;;;;;6.70;2.83;;;10.10;99.90;;;;;;4957601;28;20292;-81
2023/11/15 03:11:37;;;;;;;8.67;2.83;;;10.10;99.90;;;;;;4974523;28;20237;-81
2023/11/15 03:14:04;;;;;;;5.80;2.70;;;10.10;99.90;;;;;;4974547;28;20240;-81
2023/11/15 03:16:31;;;;;;;8.63;2.80;;;10.10;99.90;;;;;;4974732;28;20296;-81
2023/11/15 03:18:58;;;;;;;9.53;3.03;;;10.10;99.90;;;;;;4941349;28;20220;-81
2023/11/15 03:21:26;;;;;;;10.20;3.03;;;10.00;99.90;;;;;;4974241;28;20221;-81
2023/11/15 03:23:52;;;;;;;7.20;2.90;;;10.00;99.90;;;;;;4957550;28;20284;-81
2023/11/15 03:26:20;;;;;;;8.23;2.77;;;10.10;99.90;;;;;;4974502;28;20285;-81
2023/11/15 03:28:47;;;;;;;7.17;2.70;;;10.10;99.90;;;;;;4974574;28;20205;-81
2023/11/15 03:31:14;;;;;;;8.57;3.03;;;10.10;99.90;;;;;;4974215;28;20198;-81
2023/11/15 03:33:43;;;;;;;9.40;2.97;;;10.10;99.90;;;;;;4957154;28;20646;-81
2023/11/15 03:36:10;;;;;;;8.53;2.80;;;10.10;99.90;;;;;;4974420;28;20292;-80
2023/11/15 03:38:37;;;;;;;7.47;2.50;;;10.10;99.90;;;;;;4974338;28;20314;-80
2023/11/15 03:41:04;;;;;;;6.40;2.30;;;10.10;99.90;;;;;;4974339;28;20465;-81
2023/11/15 03:43:32;;;;;;;6.87;2.50;;;10.10;99.90;;;;;;4974568;28;20260;-80
2023/11/15 03:45:59;;;;;;;8.93;2.57;;;10.10;99.90;;;;;;4974141;28;20256;-81
2023/11/15 03:48:27;;;;;;;7.53;2.40;;;10.10;99.90;;;;;;4974281;28;20193;-81
2023/11/15 03:50:54;;;;;;;8.43;2.93;;;10.10;99.90;;;;;;4973994;28;20193;-81
2023/11/15 03:53:21;;;;;;;9.53;3.00;;;10.00;99.90;;;;;;4973887;28;20204;-81
2023/11/15 03:55:49;;;;;;;8.03;2.80;;;10.00;99.90;;;;;;4956754;28;20248;-81
2023/11/15 03:58:16;;;;;;;6.17;2.40;;;10.00;99.90;;;;;;4973833;28;20189;-81
2023/11/15 04:00:43;;;;;;;7.17;2.50;;;10.00;99.90;;;;;;4973825;28;20193;-80
2023/11/15 04:03:10;;;;;;;8.00;2.50;;;10.00;99.90;;;;;;4941054;28;20295;-80
2023/11/15 04:05:38;;;;;;;6.80;2.50;;;10.00;99.90;;;;;;4956427;28;20193;-81
2023/11/15 04:08:05;;;;;;;6.53;2.33;;;10.10;99.90;;;;;;4956406;28;20217;-80
2023/11/15 04:10:32;;;;;;;7.00;2.50;;;10.10;99.90;;;;;;4956642;28;20222;-81
2023/11/15 04:12:59;;;;;;;8.03;2.60;;;10.10;99.90;;;;;;4956662;28;20201;-81
2023/11/15 04:15:26;;;;;;;4.43;2.40;;;10.10;99.90;;;;;;4973878;28;20244;-80
2023/11/15 04:17:53;;;;;;;8.70;2.43;;;10.10;99.90;;;;;;4956455;28;20299;-81
2023/11/15 04:20:22;;;;;;;7.60;2.53;;;10.10;99.90;;;;;;4956253;28;20205;-81
2023/11/15 04:22:49;;;;;;;6.17;2.60;;;10.10;99.90;;;;;;4956094;28;20245;-81
2023/11/15 04:25:16;;;;;;;5.97;2.40;;;10.10;99.90;;;;;;4973421;28;20765;-80
2023/11/15 04:27:43;;;;;;;8.43;2.60;;;10.10;99.90;;;;;;4956525;28;20201;-81
2023/11/15 04:30:11;;;;;;;8.90;2.80;;;10.10;99.90;;;;;;4956710;28;20661;-81
2023/11/15 04:32:39;;;;;;;6.70;2.87;;;10.10;99.90;;;;;;4956384;28;20204;-81
2023/11/15 04:35:07;;;;;;;10.27;2.80;;;10.10;99.90;;;;;;4940473;28;20670;-81
2023/11/15 04:37:35;;;;;;;5.50;2.50;;;10.10;99.90;;;;;;4956434;28;20209;-81
2023/11/15 04:40:04;;;;;;;6.90;2.77;;;10.10;99.90;;;;;;4956242;28;20205;-81
2023/11/15 04:42:31;;;;;;;9.83;2.97;;;10.20;99.90;;;;;;4956497;28;20559;-80
2023/11/15 04:44:58;;;;;;;8.07;2.80;;;10.10;99.90;;;;;;4973344;28;20304;-81
2023/11/15 04:47:25;;;;;;;8.30;2.80;;;10.00;99.90;;;;;;4973416;28;20386;-81
2023/11/15 04:49:52;;;;;;;7.43;2.73;;;10.00;99.90;;;;;;4973638;28;20197;-81
2023/11/15 04:52:19;;;;;;;9.90;2.87;;;10.00;99.90;;;;;;4973422;28;20205;-80
2023/11/15 04:54:46;;;;;;;9.73;2.83;;;10.10;99.90;;;;;;4973832;28;20595;-80
2023/11/15 04:57:14;;;;;;;8.27;2.97;;;10.00;99.90;;;;;;4973446;28;20221;-81
2023/11/15 04:59:42;;;;;;;10.53;3.40;;;10.00;99.90;;;;;;4973507;28;20233;-80
2023/11/15 05:02:10;;;;;;;7.53;3.10;;;9.90;99.90;;;;;;4973222;28;20632;-81
2023/11/15 05:04:37;;;;;;;7.83;3.20;;;9.90;99.90;;;;;;4956532;28;20212;-81
2023/11/15 05:07:05;;;;;;;9.43;3.40;;;9.80;99.90;;;;;;4939917;28;20211;-81
2023/11/15 05:09:32;;;;;;;7.77;3.17;;;9.80;99.90;;;;;;4973182;28;20221;-81
2023/11/15 05:12:00;;;;;;;10.00;3.50;;;9.70;99.90;;;;;;4973436;28;20303;-80
2023/11/15 05:14:27;;;;;;;9.20;3.50;;;9.70;99.90;;;;;;4956007;28;20220;-81
2023/11/15 05:16:54;;;;;;;9.20;3.10;;;9.70;99.90;;;;;;4955732;28;20211;-80
2023/11/15 05:19:21;;;;;;;8.93;3.47;;;9.70;99.90;;;;;;4973143;28;20189;-80
2023/11/15 05:21:48;;;;;;;8.90;3.27;;;9.70;99.90;;;;;;4975940;28;20291;-80
2023/11/15 05:24:15;;;;;;;11.53;3.43;;;9.60;99.90;;;;;;4976620;28;20251;-81
2023/11/15 05:26:42;;;;;;;9.53;3.67;;;9.60;99.90;;;;;;4959105;28;20225;-81
2023/11/15 05:29:09;;;;;;;6.93;3.47;;;9.60;99.90;;;;;;4976818;28;20197;-81
2023/11/15 05:31:36;;;;;;;9.00;3.60;;;9.60;99.90;;;;;;4959195;28;20198;-80
2023/11/15 05:34:04;;;;;;;8.13;3.70;;;9.60;99.90;;;;;;4976464;28;20278;-80
2023/11/15 05:36:30;;;;;;;9.33;4.00;;;9.60;99.90;;;;;;4976490;28;20196;-81
2023/11/15 05:38:58;;;;;;;9.47;3.50;;;9.60;99.90;;;;;;4976411;28;20192;-81
2023/11/15 05:41:26;;;;;;;7.90;3.57;;;9.50;99.90;;;;;;4976142;28;20670;-81
2023/11/15 05:43:55;;;;;;;12.00;4.10;;;9.60;99.90;;;;;;4976368;28;20281;-81
2023/11/15 05:46:22;;;;;;;10.60;3.73;;;9.60;99.90;;;;;;4976428;28;20233;-81
2023/11/15 05:48:49;;;;;;;9.73;3.60;;;9.50;99.90;;;;;;4976107;28;20199;-81
2023/11/15 05:51:17;;;;;;;11.27;4.23;;;9.50;99.90;;;;;;4958923;28;20194;-81
2023/11/15 05:53:45;;;;;;;9.17;3.97;;;9.50;99.90;;;;;;4959020;28;20280;-81
2023/11/15 05:56:12;;;;;;;8.67;3.80;;;9.50;99.90;;;;;;4958675;28;20240;-81
2023/11/15 05:58:42;;;;;;;10.90;4.13;;;9.50;99.90;;;;;;4959342;28;20284;-81
2023/11/15 06:01:11;;;;;;;10.20;4.00;;;9.50;99.90;;;;;;4975856;28;20232;-80
2023/11/15 06:03:38;;;;;;;10.37;4.03;;;9.40;99.90;;;;;;4958997;28;20611;-80
2023/11/15 06:06:05;;;;;;;11.20;4.57;;;9.40;99.90;;;;;;4976042;28;20284;-80
2023/11/15 06:08:32;;;;;;;11.67;4.43;;;9.50;99.90;;;;;;4975773;28;20200;-80
2023/11/15 06:11:00;;;;;;;10.60;4.40;;;9.40;99.90;;;;;;4975686;28;20678;-80
2023/11/15 06:13:27;;;;;;;10.60;4.10;;;9.40;99.90;;;;;;4975614;28;20650;-80
2023/11/15 06:15:54;;;;;;;10.93;4.07;;;9.40;99.90;;;;;;4975658;28;20204;-79
2023/11/15 06:18:21;;;;;;;9.20;4.20;;;9.40;99.90;;;;;;4944594;28;20252;-80
2023/11/15 06:20:49;;;;;;;12.13;4.73;;;9.50;99.90;;;;;;4975837;28;20201;-80
2023/11/15 06:23:17;;;;;;;12.23;4.03;;;9.40;99.90;;;;;;4975346;28;20233;-80
2023/11/15 06:25:46;;;;;;;15.33;5.67;;;9.50;99.90;;;;;;4958568;28;20249;-80
2023/11/15 06:28:13;;;;;;;10.20;4.40;;;9.40;99.90;;;;;;4975693;28;20205;-80
2023/11/15 06:30:43;;;;;;;12.43;4.67;;;9.40;99.90;;;;;;4975256;28;20201;-80
2023/11/15 06:33:10;;;;;;;8.37;4.30;;;9.40;99.90;;;;;;4975280;28;20201;-80
2023/11/15 06:35:37;;;;;;;15.77;5.00;;;9.40;99.90;;;;;;4975565;28;20601;-80
2023/11/15 06:38:05;;;;;;;11.20;4.80;;;9.40;99.90;;;;;;4975481;28;20232;-80
2023/11/15 06:40:33;;;;;;;12.40;5.30;;;9.30;99.90;;;;;;4958029;28;20271;-80
2023/11/15 06:43:00;;;;;;;13.43;5.20;;;9.30;99.90;;;;;;4974881;28;20689;-81
2023/11/15 06:45:28;;;;;;;17.30;5.60;;;9.30;99.90;;;;;;4957881;28;20622;-81
2023/11/15 06:47:56;;;;;;;11.47;5.37;;;9.30;99.90;;;;;;4958296;28;20205;-81
2023/11/15 06:50:25;;;;;;;12.10;5.33;;;9.30;99.90;;;;;;4975410;28;20190;-81
2023/11/15 06:52:53;;;;;;;12.43;5.27;;;9.40;99.90;;;;;;4975446;28;20208;-81
2023/11/15 06:55:20;;;;;;;13.20;5.40;;;9.40;99.90;;;;;;4974817;28;20701;-81
2023/11/15 06:57:47;;;;;;;12.93;5.17;;;9.40;99.90;;;;;;4974947;28;20237;-81
2023/11/15 07:00:15;;;;;;;13.63;5.37;;;9.40;99.90;;;;;;4974791;28;20673;-81
2023/11/15 07:02:42;;;;;;;16.37;5.67;;;9.40;99.90;;;;;;4974663;28;20319;-81
2023/11/15 07:05:10;;;;;;;12.03;5.47;;;9.40;99.90;;;;;;4957569;28;20212;-81
2023/11/15 07:07:38;;;;;;;10.77;5.30;;;9.40;99.90;;;;;;4974609;28;20646;-81
2023/11/15 07:10:06;;;;;;;11.27;5.60;;;9.40;99.90;;;;;;4957730;28;20291;-81
2023/11/15 07:12:36;;;;;;;13.17;5.43;;;9.40;99.90;;;;;;4974815;28;20204;-81
2023/11/15 07:15:07;;;;;;;12.70;5.83;;;9.40;99.90;;;;;;4957712;28;20284;-81
2023/11/15 07:17:35;;;;;;;13.00;5.60;;;9.50;99.90;;;;;;4957244;28;20193;-81
2023/11/15 07:20:06;;;;;;;14.53;5.93;;;9.40;99.90;;;;;;4975014;28;20229;-81
2023/11/15 07:22:33;;;;;;;12.50;5.70;;;9.40;99.90;;;;;;4974818;28;20237;-81
2023/11/15 07:25:02;;;;;;;16.27;5.60;;;9.40;99.90;;;;;;4974556;28;20297;-81
2023/11/15 07:27:31;;;;;;;12.80;6.33;;;9.40;99.90;;;;;;4956877;28;20207;-81
2023/11/15 07:30:00;;;;;;;13.03;5.93;;;9.40;99.90;;;;;;4957419;28;20284;-81
2023/11/15 07:32:28;;;;;;;13.70;6.40;;;9.40;99.90;;;;;;4974280;28;20212;-81
2023/11/15 07:34:55;;;;;;;12.80;5.93;;;9.40;99.90;;;;;;4974419;28;20213;-81
2023/11/15 07:37:22;;;;;;;12.67;6.00;;;9.40;99.90;;;;;;4974333;28;20236;-81
2023/11/15 07:39:50;;;;;;;11.03;6.10;;;9.40;99.90;;;;;;4956834;28;20633;-81
2023/11/15 07:42:17;;;;;;;13.90;6.13;;;9.40;99.90;;;;;;4973981;28;20307;-81
2023/11/15 07:44:45;;;;;;;18.83;6.03;;;9.50;99.90;;;;;;4973507;28;20646;-81
2023/11/15 07:47:14;;;;;;;11.17;6.20;;;9.50;99.90;;;;;;4956753;28;20702;-87
2023/11/15 07:49:44;;;;;;;11.47;6.13;;;9.50;99.90;;;;;;4956877;28;20559;-87
2023/11/15 07:52:12;;;;;;;15.20;6.57;;;9.50;99.90;;;;;;4974012;28;20247;-87
2023/11/15 07:54:39;;;;;;;12.17;5.90;;;9.40;99.90;;;;;;4973832;28;20228;-89
2023/11/15 07:57:07;;;;;;;11.93;5.90;;;9.50;99.90;;;;;;4973890;28;20713;-80
2023/11/15 07:59:35;;;;;;;13.37;5.90;;;9.50;99.90;;;;;;4956538;28;20219;-81
2023/11/15 08:02:02;;;;;;;13.43;6.33;;;9.40;99.90;;;;;;4956832;28;20259;-81
2023/11/15 08:04:31;;;;;;;13.23;6.43;;;9.40;99.90;;;;;;4957198;28;20209;-83
2023/11/15 08:06:59;;;;;;;14.77;6.70;;;9.40;99.90;;;;;;4974098;28;20676;-81
2023/11/15 08:09:27;;;;;;;14.13;6.50;;;9.40;99.90;;;;;;4956518;28;20228;-81
2023/11/15 08:11:55;;;;;;;11.57;6.23;;;9.40;99.90;;;;;;4940383;28;20660;-82
2023/11/15 08:14:25;;;;;;;13.90;6.20;;;9.40;99.90;;;;;;4956828;28;20644;-82
2023/11/15 08:16:54;;;;;;;11.23;5.67;;;9.40;99.90;;;;;;4956228;28;20213;-83
2023/11/15 08:19:22;;;;;;;13.77;6.47;;;9.30;99.90;;;;;;4973540;28;20276;-81
2023/11/15 08:21:50;;;;;;;12.37;6.47;;;9.30;99.90;;;;;;4953010;28;20237;-81
2023/11/15 08:24:26;;;;;;;13.50;6.90;;;9.30;99.90;;;;;;4954620;28;20552;-87
2023/11/15 08:26:55;;;;;;;12.47;6.93;;;9.30;99.90;;;;;;4953245;29;20303;-85
2023/11/15 08:29:23;;;;;;;15.83;7.13;;;9.30;99.90;;;;;;4937560;29;20210;-90
2023/11/15 08:31:50;;;;;;;14.20;7.47;;;9.30;99.90;;;;;;4953647;29;20196;-89
2023/11/15 08:34:20;;;;;;;14.73;7.87;;;9.20;99.90;;;;;;4955050;28;20288;-91
2023/11/15 08:36:51;;;;;;;18.37;8.63;;;9.20;99.90;;;;;;4953421;29;20647;-89
2023/11/15 08:39:22;;;;;;;15.77;8.33;;;9.20;99.90;;;;;;4954922;28;20208;-88
2023/11/15 08:41:53;;;;;;;15.63;8.67;;;9.10;99.90;;;;;;4952980;28;20223;-89
2023/11/15 08:44:25;;;;;;;13.90;8.60;;;9.10;99.90;;;;;;4957068;28;20178;-90
2023/11/15 08:46:57;;;;;;;19.63;9.07;;;9.10;99.90;;;;;;4939444;28;20212;-88
2023/11/15 08:49:26;;;;;;;14.80;8.57;;;9.20;99.90;;;;;;4954541;28;20198;-86
2023/11/15 08:51:54;;;;;;;14.57;7.83;;;9.20;99.90;;;;;;4955029;28;20290;-91
2023/11/15 08:54:21;;;;;;;14.50;7.77;;;9.10;99.90;;;;;;4961601;28;20204;-91
2023/11/15 08:56:54;;;;;;;14.97;7.60;;;9.10;99.90;;;;;;4959923;29;20292;-90
2023/11/15 08:59:26;;;;;;;14.70;7.03;;;9.10;99.90;;;;;;4958196;29;20220;-91
2023/11/15 09:01:54;;;;;;;13.87;7.30;;;9.10;99.90;;;;;;4963268;28;20194;-90
2023/11/15 09:04:22;;;;;;;13.33;6.90;;;9.30;99.90;;;;;;4960882;29;20194;-88
2023/11/15 09:06:52;;;;;;;16.33;7.47;;;9.10;99.90;;;;;;4956667;29;20280;-88
2023/11/15 09:09:20;;;;;;;14.13;7.40;;;9.10;99.90;;;;;;4956737;29;20204;-89
2023/11/15 09:11:51;;;;;;;14.83;7.90;;;9.10;99.90;;;;;;4957665;28;20209;-89
2023/11/15 09:14:21;;;;;;;15.57;8.30;;;9.20;99.90;;;;;;4956657;28;20249;-88
2023/11/15 09:16:50;;;;;;;17.23;8.43;;;9.20;99.90;;;;;;4940943;29;20244;-89
2023/11/15 09:19:20;;;;;;;14.43;8.20;;;9.20;99.90;;;;;;4958777;29;20221;-89
2023/11/15 09:21:48;;;;;;;14.43;8.63;;;9.20;99.90;;;;;;4965145;28;20272;-82
2023/11/15 09:24:21;;;;;;;17.97;8.37;;;9.30;99.90;;;;;;4976908;28;20213;-81
2023/11/15 09:26:50;;;;;;;17.47;8.43;;;9.40;99.90;;;;;;4977776;28;20228;-84
2023/11/15 09:29:19;;;;;;;18.27;8.23;;;9.40;99.90;;;;;;4959615;28;20197;-85
2023/11/15 09:31:49;;;;;;;15.77;8.27;;;9.40;99.90;;;;;;4959198;28;20200;-85
2023/11/15 09:34:17;;;;;;;20.67;9.83;;;9.50;99.90;;;;;;4959056;28;20205;-85
2023/11/15 09:36:47;;;;;;;18.73;9.47;;;9.50;99.90;;;;;;4976343;28;20680;-86
2023/11/15 09:39:17;;;;;;;18.57;10.17;;;9.50;99.90;;;;;;4944101;28;20232;-85
2023/11/15 09:41:51;;;;;;;19.93;10.07;;;9.50;99.90;;;;;;4977478;28;20224;-86
2023/11/15 09:44:19;;;;;;;18.77;10.63;;;9.50;99.90;;;;;;4958761;28;20225;-84
2023/11/15 09:46:58;;;;;;;17.70;9.90;;;9.40;99.90;;;;;;4976288;28;20189;-85
2023/11/15 09:49:29;;;;;;;16.23;9.60;;;9.40;99.90;;;;;;4976271;28;20202;-84
2023/11/15 09:51:59;;;;;;;17.13;10.00;;;9.40;99.90;;;;;;4976123;28;20196;-83
2023/11/15 09:54:26;;;;;;;17.73;9.77;;;9.40;99.90;;;;;;4942790;28;20228;-84
2023/11/15 09:56:58;;;;;;;14.07;10.17;;;9.50;99.90;;;;;;4959470;28;20221;-84
2023/11/15 09:59:26;;;;;;;17.50;9.50;;;9.40;99.90;;;;;;4958744;28;20244;-84
2023/11/15 10:01:54;;;;;;;19.73;8.83;;;9.50;99.90;;;;;;4975976;28;20197;-85
2023/11/15 10:04:28;;;;;;;16.13;9.70;;;9.50;99.90;;;;;;4975874;28;20213;-84
2023/11/15 10:06:57;;;;;;;14.50;8.37;;;9.50;99.90;;;;;;4975116;28;20204;-84
2023/11/15 10:09:39;;;;;;;15.93;8.90;;;9.60;99.90;;;;;;4958521;28;20299;-84
2023/11/15 10:12:08;;;;;;;12.20;7.97;;;9.60;99.90;;;;;;4978319;28;20240;-83
2023/11/15 10:14:51;;;;;;;14.23;8.20;;;9.60;99.90;;;;;;4975711;28;20200;-84
2023/11/15 10:17:20;;;;;;;13.13;7.37;;;9.60;99.90;;;;;;4976641;28;20188;-83
2023/11/15 10:19:48;;;;;;;14.70;7.87;;;9.80;99.90;;;;;;4975600;28;20197;-83
2023/11/15 10:22:39;;;;;;;15.20;7.97;;;9.80;99.90;;;;;;4975747;28;20348;-89
2023/11/15 10:25:07;;;;;;;14.00;7.10;;;9.90;99.90;;;;;;4961012;28;20200;-83
2023/11/15 10:27:38;;;;;;;12.67;7.40;;;10.00;99.90;;;;;;4975788;28;20243;-86
2023/11/15 10:30:16;;;;;;;13.60;7.10;;;10.00;99.90;;;;;;4958343;28;20197;-86
2023/11/15 10:32:47;;;;;;;13.53;6.80;;;10.00;99.90;;;;;;4975561;28;20243;-85
2023/11/15 10:35:28;;;;;;;11.97;6.83;;;10.10;99.90;;;;;;4959223;28;20307;-85
2023/11/15 10:37:56;;;;;;;13.57;7.13;;;10.10;99.90;;;;;;4975404;28;20197;-86
2023/11/15 10:40:29;;;;;;;13.93;6.60;;;10.00;99.90;;;;;;4975513;28;20701;-90
2023/11/15 10:42:58;;;;;;;13.47;5.67;;;10.00;99.90;;;;;;4959937;28;20224;-92
2023/11/15 10:45:27;;;;;;;8.07;4.97;;;10.10;99.90;;;;;;4958446;28;20193;-86
2023/11/15 10:47:57;;;;;;;8.90;4.63;;;10.10;99.90;;;;;;4976070;28;20672;-86
2023/11/15 10:50:31;;;;;;;10.33;4.03;;;10.10;99.90;;;;;;4975226;28;20194;-86
2023/11/15 10:52:59;;;;;;;9.13;4.20;;;10.00;99.90;;;;;;4975539;28;20177;-87
2023/11/15 10:55:31;;;;;;;5.53;3.63;;;10.10;99.90;;;;;;4959272;28;20233;-87
2023/11/15 10:58:02;;;;;;;5.60;3.30;;;10.10;99.90;;;;;;4962008;28;20580;-90
2023/11/15 11:00:31;;;;;;;6.43;3.40;;;10.20;99.90;;;;;;4975702;28;20201;-88
2023/11/15 11:02:59;;;;;;;5.33;3.30;;;10.20;99.90;;;;;;4974973;28;20221;-85
2023/11/15 11:05:55;;;;;;;4.77;2.83;;;10.30;99.90;;;;;;4959709;28;20205;-87
2023/11/15 11:08:26;;;;;;;6.83;2.97;;;10.30;99.90;;;;;;4967334;28;20213;-85
2023/11/15 11:11:06;;;;;;;4.63;2.57;;;10.30;99.90;;;;;;4960114;28;20227;-89
2023/11/15 11:13:39;;;;;;;4.60;2.80;;;10.40;99.90;;;;;;4959449;28;20205;-91
2023/11/15 11:16:28;;;;;;;5.27;2.37;;;10.40;99.90;;;;;;4958618;28;20193;-83
2023/11/15 11:19:16;;;;;;;6.87;2.60;;;10.30;99.90;;;;;;4973604;28;20196;-86
2023/11/15 11:24:45;;;;;;;4.83;2.90;;;10.40;99.90;;;;;;4955473;28;20245;-91
2023/11/15 11:27:16;;;;;;;6.60;3.13;;;10.50;99.90;;;;;;4955005;29;20236;-84
2023/11/15 11:29:58;;;;;;;4.50;3.30;;;10.50;99.90;;;;;;4955350;29;20335;-85
2023/11/15 11:32:35;;;;;;;6.17;2.80;;;10.70;99.90;;;;;;4954358;29;20207;-91
2023/11/15 11:35:07;;;;;;;7.20;3.50;;;10.80;99.90;;;;;;4949055;28;20198;-91
2023/11/15 11:37:50;;;;;;;6.40;3.20;;;10.80;99.90;;;;;;4956303;28;20173;-84
2023/11/15 11:40:25;;;;;;;5.97;3.00;;;10.50;99.90;;;;;;4953784;28;20269;-87
2023/11/15 11:42:54;;;;;;;7.13;3.40;;;10.30;99.90;;;;;;4954662;29;20194;-89
2023/11/15 11:45:24;;;;;;;7.60;3.40;;;10.50;99.90;;;;;;4956757;28;20277;-84
2023/11/15 11:47:51;;;;;;;6.60;3.43;;;10.50;99.90;;;;;;4956173;28;20196;-87
2023/11/15 11:50:24;;;;;;;6.40;3.00;;;10.50;99.90;;;;;;4956870;29;20233;-88
2023/11/15 11:53:01;;;;;;;6.53;3.50;;;10.40;99.90;;;;;;4957387;28;20234;-89
2023/11/15 11:55:32;;;;;;;8.87;3.67;;;10.30;99.90;;;;;;4955098;28;20221;-85
2023/11/15 11:58:03;;;;;;;7.13;3.80;;;10.30;99.90;;;;;;4953322;29;20207;-92
2023/11/15 12:00:31;;;;;;;7.27;3.60;;;10.30;99.90;;;;;;4954096;29;20210;-90
2023/11/15 12:05:43;;;;;;;6.77;3.50;;;10.20;99.90;;;;;;5094245;23;20217;-93
2023/11/15 12:08:31;;;;;;;8.40;3.97;;;10.30;99.90;;;;;;4961720;28;20198;-94
2023/11/15 12:11:00;;;;;;;5.67;3.93;;;10.20;99.90;;;;;;4929580;29;20218;-94
2023/11/15 12:13:50;;;;;;;7.60;3.90;;;10.20;99.90;;;;;;4939910;29;20629;-93
2023/11/15 12:16:25;;;;;;;5.80;3.73;;;10.20;99.90;;;;;;4938019;29;20605;-93
2023/11/15 12:19:08;;;;;;;6.93;3.50;;;10.20;99.90;;;;;;4954175;29;20205;-93
2023/11/15 12:21:45;;;;;;;7.37;3.63;;;10.40;99.90;;;;;;4964560;29;20205;-93
2023/11/15 12:24:22;;;;;;;6.90;3.50;;;10.50;99.90;;;;;;4948002;29;20209;-94
2023/11/15 12:26:56;;;;;;;5.70;3.57;;;10.50;99.90;;;;;;4954577;29;20304;-92
2023/11/15 12:29:26;;;;;;;6.17;3.90;;;10.50;99.90;;;;;;4928362;29;20681;-82
2023/11/15 12:31:56;;;;;;;6.23;3.63;;;10.30;99.90;;;;;;4958299;29;20190;-81
2023/11/15 12:34:24;;;;;;;5.67;3.13;;;10.30;99.90;;;;;;4958669;29;20217;-84
2023/11/15 12:36:52;;;;;;;7.93;3.50;;;10.30;99.90;;;;;;4956835;29;20205;-81
2023/11/15 12:39:21;;;;;;;5.13;3.03;;;10.30;99.90;;;;;;4958099;29;20603;-83
2023/11/15 12:41:51;;;;;;;4.20;2.90;;;10.30;99.90;;;;;;4956899;29;20687;-84
2023/11/15 12:44:20;;;;;;;5.10;2.97;;;10.30;99.90;;;;;;4941265;29;20233;-84
2023/11/15 12:46:52;;;;;;;7.10;3.53;;;10.30;99.90;;;;;;4956827;29;20297;-83
2023/11/15 12:49:23;;;;;;;5.17;2.90;;;10.20;99.90;;;;;;4958049;29;20571;-84
2023/11/15 12:51:54;;;;;;;3.77;2.50;;;10.10;99.90;;;;;;4956682;29;20206;-84
2023/11/15 12:54:21;;;;;;;3.93;2.50;;;10.00;99.90;;;;;;4940499;29;20610;-85
2023/11/15 12:57:12;;;;;;;4.53;2.83;;;9.90;99.90;;;;;;4956505;29;20590;-85
2023/11/15 12:59:42;;;;;;;3.30;2.30;;;10.00;99.90;;;;;;4956459;29;20213;-81
2023/11/15 13:02:17;;;;;;;3.97;2.50;;;9.80;99.90;;;;;;4957940;29;20208;-81